Terminal Aerodrome Forecast
Issued by NWS

Home | Current Version | Previous Version | Text Only | Print | Product List | Glossary On
Versions: 1 2 3 4 5 6 7 8 9 10 11 12 13 14
897
FTUS46 KHNX 192320
TAFFAT
TAF
KFAT 192320Z 2000/2024 31006KT 5SM HZ SCT100
     FM200400 32008KT 6SM HZ SCT060 BKN100
     FM200600 29012KT P6SM BKN060 PROB30 2010/2014 6SM -RA OVC050
     FM201400 32012KT P6SM SCT050=

USA.gov is the U.S. government's official web portal to all federal, state and local government web resources and services.